sensor_id;sensor_type;location;lat;lon;timestamp;P1;durP1;ratioP1;P2;durP2;ratioP2
74170;SDS011;62526;50.948;6.590;2024-01-06T00:01:33;7.90;;;5.87;;
74170;SDS011;62526;50.948;6.590;2024-01-06T00:04:00;12.33;;;7.23;;
74170;SDS011;62526;50.948;6.590;2024-01-06T00:06:27;8.73;;;5.70;;
74170;SDS011;62526;50.948;6.590;2024-01-06T00:08:53;11.73;;;8.03;;
74170;SDS011;62526;50.948;6.590;2024-01-06T00:11:20;11.53;;;8.20;;
74170;SDS011;62526;50.948;6.590;2024-01-06T00:13:47;10.43;;;7.07;;
74170;SDS011;62526;50.948;6.590;2024-01-06T00:16:16;8.77;;;5.40;;
74170;SDS011;62526;50.948;6.590;2024-01-06T00:18:40;15.07;;;7.97;;
74170;SDS011;62526;50.948;6.590;2024-01-06T00:21:07;10.57;;;6.90;;
74170;SDS011;62526;50.948;6.590;2024-01-06T00:23:33;12.83;;;7.13;;
74170;SDS011;62526;50.948;6.590;2024-01-06T00:26:00;10.97;;;7.00;;
74170;SDS011;62526;50.948;6.590;2024-01-06T00:28:26;9.77;;;8.10;;
74170;SDS011;62526;50.948;6.590;2024-01-06T00:30:53;10.47;;;7.73;;
74170;SDS011;62526;50.948;6.590;2024-01-06T00:33:20;13.57;;;8.80;;
74170;SDS011;62526;50.948;6.590;2024-01-06T00:35:46;9.40;;;6.97;;
74170;SDS011;62526;50.948;6.590;2024-01-06T00:38:15;16.10;;;9.03;;
74170;SDS011;62526;50.948;6.590;2024-01-06T00:40:41;15.57;;;8.70;;
74170;SDS011;62526;50.948;6.590;2024-01-06T00:43:08;12.77;;;8.60;;
74170;SDS011;62526;50.948;6.590;2024-01-06T00:45:35;14.60;;;10.10;;
74170;SDS011;62526;50.948;6.590;2024-01-06T00:48:01;15.50;;;9.87;;
74170;SDS011;62526;50.948;6.590;2024-01-06T00:50:28;15.50;;;9.10;;
74170;SDS011;62526;50.948;6.590;2024-01-06T00:52:55;11.90;;;9.03;;
74170;SDS011;62526;50.948;6.590;2024-01-06T00:55:22;12.87;;;9.40;;
74170;SDS011;62526;50.948;6.590;2024-01-06T00:57:48;14.80;;;10.27;;
74170;SDS011;62526;50.948;6.590;2024-01-06T01:00:15;13.47;;;9.97;;
74170;SDS011;62526;50.948;6.590;2024-01-06T01:02:41;13.33;;;9.57;;
74170;SDS011;62526;50.948;6.590;2024-01-06T01:05:08;17.07;;;10.67;;
74170;SDS011;62526;50.948;6.590;2024-01-06T01:07:35;13.67;;;9.47;;
74170;SDS011;62526;50.948;6.590;2024-01-06T01:10:01;16.07;;;10.70;;
74170;SDS011;62526;50.948;6.590;2024-01-06T01:12:28;15.27;;;10.30;;
74170;SDS011;62526;50.948;6.590;2024-01-06T01:14:55;16.37;;;10.73;;
74170;SDS011;62526;50.948;6.590;2024-01-06T01:17:21;13.97;;;9.80;;
74170;SDS011;62526;50.948;6.590;2024-01-06T01:19:48;14.53;;;10.50;;
74170;SDS011;62526;50.948;6.590;2024-01-06T01:22:14;17.03;;;11.43;;
74170;SDS011;62526;50.948;6.590;2024-01-06T01:24:41;19.00;;;11.70;;
74170;SDS011;62526;50.948;6.590;2024-01-06T01:27:08;19.63;;;12.40;;
74170;SDS011;62526;50.948;6.590;2024-01-06T01:29:34;20.37;;;12.83;;
74170;SDS011;62526;50.948;6.590;2024-01-06T01:32:01;19.80;;;12.07;;
74170;SDS011;62526;50.948;6.590;2024-01-06T01:34:28;20.97;;;13.57;;
74170;SDS011;62526;50.948;6.590;2024-01-06T01:36:54;20.00;;;12.63;;
74170;SDS011;62526;50.948;6.590;2024-01-06T01:39:21;21.67;;;14.00;;
74170;SDS011;62526;50.948;6.590;2024-01-06T01:41:48;19.50;;;12.83;;
74170;SDS011;62526;50.948;6.590;2024-01-06T01:44:15;24.27;;;13.77;;
74170;SDS011;62526;50.948;6.590;2024-01-06T01:46:41;23.63;;;13.40;;
74170;SDS011;62526;50.948;6.590;2024-01-06T01:49:08;27.13;;;13.37;;
74170;SDS011;62526;50.948;6.590;2024-01-06T01:51:35;21.73;;;13.37;;
74170;SDS011;62526;50.948;6.590;2024-01-06T01:54:02;23.60;;;14.83;;
74170;SDS011;62526;50.948;6.590;2024-01-06T01:56:29;25.10;;;14.33;;
74170;SDS011;62526;50.948;6.590;2024-01-06T01:58:55;21.83;;;13.70;;
74170;SDS011;62526;50.948;6.590;2024-01-06T02:01:22;24.70;;;14.30;;
74170;SDS011;62526;50.948;6.590;2024-01-06T02:03:48;20.57;;;13.17;;
74170;SDS011;62526;50.948;6.590;2024-01-06T02:06:15;25.90;;;13.10;;
74170;SDS011;62526;50.948;6.590;2024-01-06T02:08:42;22.43;;;13.03;;
74170;SDS011;62526;50.948;6.590;2024-01-06T02:11:08;19.00;;;11.83;;
74170;SDS011;62526;50.948;6.590;2024-01-06T02:13:35;20.73;;;13.77;;
74170;SDS011;62526;50.948;6.590;2024-01-06T02:16:02;20.63;;;13.50;;
74170;SDS011;62526;50.948;6.590;2024-01-06T02:18:29;22.60;;;13.67;;
74170;SDS011;62526;50.948;6.590;2024-01-06T02:20:57;24.43;;;14.37;;
74170;SDS011;62526;50.948;6.590;2024-01-06T02:23:22;22.00;;;13.27;;
74170;SDS011;62526;50.948;6.590;2024-01-06T02:25:49;21.40;;;12.77;;
74170;SDS011;62526;50.948;6.590;2024-01-06T02:28:15;23.83;;;12.33;;
74170;SDS011;62526;50.948;6.590;2024-01-06T02:30:42;28.70;;;15.93;;
74170;SDS011;62526;50.948;6.590;2024-01-06T02:33:09;26.13;;;15.00;;
74170;SDS011;62526;50.948;6.590;2024-01-06T02:35:35;28.37;;;16.17;;
74170;SDS011;62526;50.948;6.590;2024-01-06T02:38:02;29.30;;;16.93;;
74170;SDS011;62526;50.948;6.590;2024-01-06T02:40:29;25.10;;;14.80;;
74170;SDS011;62526;50.948;6.590;2024-01-06T02:42:55;26.03;;;13.70;;
74170;SDS011;62526;50.948;6.590;2024-01-06T02:45:23;25.00;;;14.83;;
74170;SDS011;62526;50.948;6.590;2024-01-06T02:47:49;27.90;;;15.27;;
74170;SDS011;62526;50.948;6.590;2024-01-06T02:50:16;25.87;;;14.33;;
74170;SDS011;62526;50.948;6.590;2024-01-06T02:52:43;32.83;;;17.10;;
74170;SDS011;62526;50.948;6.590;2024-01-06T02:55:11;32.17;;;17.80;;
74170;SDS011;62526;50.948;6.590;2024-01-06T02:57:38;33.47;;;17.70;;
74170;SDS011;62526;50.948;6.590;2024-01-06T03:00:05;31.10;;;15.50;;
74170;SDS011;62526;50.948;6.590;2024-01-06T03:02:32;38.67;;;18.33;;
74170;SDS011;62526;50.948;6.590;2024-01-06T03:04:59;28.53;;;16.57;;
74170;SDS011;62526;50.948;6.590;2024-01-06T03:07:25;35.27;;;18.83;;
74170;SDS011;62526;50.948;6.590;2024-01-06T03:09:52;36.93;;;17.20;;
74170;SDS011;62526;50.948;6.590;2024-01-06T03:12:18;41.67;;;19.27;;
74170;SDS011;62526;50.948;6.590;2024-01-06T03:14:45;32.43;;;17.27;;
74170;SDS011;62526;50.948;6.590;2024-01-06T03:17:12;36.00;;;18.43;;
74170;SDS011;62526;50.948;6.590;2024-01-06T03:19:38;32.77;;;17.03;;
74170;SDS011;62526;50.948;6.590;2024-01-06T03:22:05;30.77;;;17.77;;
74170;SDS011;62526;50.948;6.590;2024-01-06T03:24:32;37.17;;;19.97;;
74170;SDS011;62526;50.948;6.590;2024-01-06T03:26:59;35.10;;;19.37;;
74170;SDS011;62526;50.948;6.590;2024-01-06T03:29:25;34.43;;;17.93;;
74170;SDS011;62526;50.948;6.590;2024-01-06T03:31:52;32.23;;;18.00;;
74170;SDS011;62526;50.948;6.590;2024-01-06T03:34:18;36.03;;;19.83;;
74170;SDS011;62526;50.948;6.590;2024-01-06T03:36:45;35.23;;;17.77;;
74170;SDS011;62526;50.948;6.590;2024-01-06T03:39:12;32.97;;;17.60;;
74170;SDS011;62526;50.948;6.590;2024-01-06T03:41:38;30.30;;;17.27;;
74170;SDS011;62526;50.948;6.590;2024-01-06T03:44:05;35.03;;;20.07;;
74170;SDS011;62526;50.948;6.590;2024-01-06T03:46:32;30.63;;;18.93;;
74170;SDS011;62526;50.948;6.590;2024-01-06T03:48:58;39.40;;;19.57;;
74170;SDS011;62526;50.948;6.590;2024-01-06T03:51:25;32.67;;;17.73;;
74170;SDS011;62526;50.948;6.590;2024-01-06T03:53:52;34.50;;;18.53;;
74170;SDS011;62526;50.948;6.590;2024-01-06T03:56:18;31.00;;;17.97;;
74170;SDS011;62526;50.948;6.590;2024-01-06T03:58:45;38.77;;;18.70;;
74170;SDS011;62526;50.948;6.590;2024-01-06T04:01:12;30.23;;;15.67;;
74170;SDS011;62526;50.948;6.590;2024-01-06T04:03:38;34.40;;;17.83;;
74170;SDS011;62526;50.948;6.590;2024-01-06T04:06:06;36.00;;;18.30;;
74170;SDS011;62526;50.948;6.590;2024-01-06T04:08:33;32.33;;;17.03;;
74170;SDS011;62526;50.948;6.590;2024-01-06T04:10:59;36.30;;;17.10;;
74170;SDS011;62526;50.948;6.590;2024-01-06T04:13:26;28.63;;;16.03;;
74170;SDS011;62526;50.948;6.590;2024-01-06T04:15:52;30.40;;;16.33;;
74170;SDS011;62526;50.948;6.590;2024-01-06T04:18:19;27.47;;;15.40;;
74170;SDS011;62526;50.948;6.590;2024-01-06T04:20:46;33.03;;;17.37;;
74170;SDS011;62526;50.948;6.590;2024-01-06T04:23:12;34.83;;;19.13;;
74170;SDS011;62526;50.948;6.590;2024-01-06T04:25:39;29.53;;;17.47;;
74170;SDS011;62526;50.948;6.590;2024-01-06T04:28:06;31.07;;;17.83;;
74170;SDS011;62526;50.948;6.590;2024-01-06T04:30:33;34.93;;;17.63;;
74170;SDS011;62526;50.948;6.590;2024-01-06T04:33:00;29.87;;;15.73;;
74170;SDS011;62526;50.948;6.590;2024-01-06T04:35:26;24.33;;;13.70;;
74170;SDS011;62526;50.948;6.590;2024-01-06T04:37:53;33.10;;;17.77;;
74170;SDS011;62526;50.948;6.590;2024-01-06T04:40:20;23.90;;;12.60;;
74170;SDS011;62526;50.948;6.590;2024-01-06T04:42:46;24.03;;;13.33;;
74170;SDS011;62526;50.948;6.590;2024-01-06T04:45:13;23.50;;;12.50;;
74170;SDS011;62526;50.948;6.590;2024-01-06T04:47:40;28.87;;;14.07;;
74170;SDS011;62526;50.948;6.590;2024-01-06T04:50:06;28.33;;;14.47;;
74170;SDS011;62526;50.948;6.590;2024-01-06T04:52:33;25.07;;;15.13;;
74170;SDS011;62526;50.948;6.590;2024-01-06T04:55:00;24.60;;;13.27;;
74170;SDS011;62526;50.948;6.590;2024-01-06T04:57:27;21.37;;;10.53;;
74170;SDS011;62526;50.948;6.590;2024-01-06T04:59:54;26.37;;;15.13;;
74170;SDS011;62526;50.948;6.590;2024-01-06T05:02:20;26.83;;;14.70;;
74170;SDS011;62526;50.948;6.590;2024-01-06T05:04:47;26.07;;;14.63;;
74170;SDS011;62526;50.948;6.590;2024-01-06T05:07:14;19.40;;;10.83;;
74170;SDS011;62526;50.948;6.590;2024-01-06T05:09:40;23.77;;;11.80;;
74170;SDS011;62526;50.948;6.590;2024-01-06T05:12:07;23.73;;;12.00;;
74170;SDS011;62526;50.948;6.590;2024-01-06T05:14:34;20.83;;;10.23;;
74170;SDS011;62526;50.948;6.590;2024-01-06T05:17:00;19.70;;;10.73;;
74170;SDS011;62526;50.948;6.590;2024-01-06T05:19:27;22.37;;;11.10;;
74170;SDS011;62526;50.948;6.590;2024-01-06T05:21:54;23.87;;;11.53;;
74170;SDS011;62526;50.948;6.590;2024-01-06T05:24:21;21.37;;;12.00;;
74170;SDS011;62526;50.948;6.590;2024-01-06T05:26:48;17.87;;;9.97;;
74170;SDS011;62526;50.948;6.590;2024-01-06T05:29:15;21.60;;;10.63;;
74170;SDS011;62526;50.948;6.590;2024-01-06T05:31:41;21.60;;;11.10;;
74170;SDS011;62526;50.948;6.590;2024-01-06T05:34:08;24.70;;;11.97;;
74170;SDS011;62526;50.948;6.590;2024-01-06T05:36:35;19.70;;;10.23;;
74170;SDS011;62526;50.948;6.590;2024-01-06T05:39:02;21.07;;;11.13;;
74170;SDS011;62526;50.948;6.590;2024-01-06T05:41:28;19.27;;;10.10;;
74170;SDS011;62526;50.948;6.590;2024-01-06T05:43:55;20.47;;;10.83;;
74170;SDS011;62526;50.948;6.590;2024-01-06T05:46:22;21.97;;;10.47;;
74170;SDS011;62526;50.948;6.590;2024-01-06T05:48:48;17.40;;;9.97;;
74170;SDS011;62526;50.948;6.590;2024-01-06T05:51:15;19.17;;;10.10;;
74170;SDS011;62526;50.948;6.590;2024-01-06T05:53:41;19.83;;;9.43;;
74170;SDS011;62526;50.948;6.590;2024-01-06T05:56:09;17.47;;;9.10;;
74170;SDS011;62526;50.948;6.590;2024-01-06T05:58:35;18.23;;;9.40;;
74170;SDS011;62526;50.948;6.590;2024-01-06T06:01:02;16.57;;;9.50;;
74170;SDS011;62526;50.948;6.590;2024-01-06T06:03:29;17.80;;;8.80;;
74170;SDS011;62526;50.948;6.590;2024-01-06T06:05:56;19.70;;;9.83;;
74170;SDS011;62526;50.948;6.590;2024-01-06T06:08:22;17.17;;;9.30;;
74170;SDS011;62526;50.948;6.590;2024-01-06T06:10:49;19.87;;;10.33;;
74170;SDS011;62526;50.948;6.590;2024-01-06T06:13:17;18.20;;;9.87;;
74170;SDS011;62526;50.948;6.590;2024-01-06T06:15:44;19.27;;;9.57;;
74170;SDS011;62526;50.948;6.590;2024-01-06T06:18:11;19.23;;;9.77;;
74170;SDS011;62526;50.948;6.590;2024-01-06T06:20:37;19.50;;;9.57;;
74170;SDS011;62526;50.948;6.590;2024-01-06T06:23:04;21.23;;;10.30;;
74170;SDS011;62526;50.948;6.590;2024-01-06T06:25:30;18.07;;;9.10;;
74170;SDS011;62526;50.948;6.590;2024-01-06T06:27:57;19.83;;;9.60;;
74170;SDS011;62526;50.948;6.590;2024-01-06T06:30:24;18.63;;;9.67;;
74170;SDS011;62526;50.948;6.590;2024-01-06T06:32:50;19.33;;;9.57;;
74170;SDS011;62526;50.948;6.590;2024-01-06T06:35:17;16.30;;;9.43;;
74170;SDS011;62526;50.948;6.590;2024-01-06T06:37:44;19.77;;;9.93;;
74170;SDS011;62526;50.948;6.590;2024-01-06T06:40:10;19.63;;;9.47;;
74170;SDS011;62526;50.948;6.590;2024-01-06T06:42:37;19.57;;;10.10;;
74170;SDS011;62526;50.948;6.590;2024-01-06T06:45:04;18.07;;;9.37;;
74170;SDS011;62526;50.948;6.590;2024-01-06T06:47:31;18.47;;;9.57;;
74170;SDS011;62526;50.948;6.590;2024-01-06T06:49:58;17.43;;;9.33;;
74170;SDS011;62526;50.948;6.590;2024-01-06T06:52:24;17.77;;;9.87;;
74170;SDS011;62526;50.948;6.590;2024-01-06T06:54:51;18.27;;;10.80;;
74170;SDS011;62526;50.948;6.590;2024-01-06T06:57:18;19.97;;;10.27;;
74170;SDS011;62526;50.948;6.590;2024-01-06T06:59:44;20.67;;;11.33;;
74170;SDS011;62526;50.948;6.590;2024-01-06T07:02:11;19.03;;;10.87;;
74170;SDS011;62526;50.948;6.590;2024-01-06T07:04:38;20.43;;;11.57;;
74170;SDS011;62526;50.948;6.590;2024-01-06T07:07:04;19.97;;;11.30;;
74170;SDS011;62526;50.948;6.590;2024-01-06T07:09:31;21.17;;;10.30;;
74170;SDS011;62526;50.948;6.590;2024-01-06T07:11:57;16.60;;;8.93;;
74170;SDS011;62526;50.948;6.590;2024-01-06T07:14:24;17.87;;;8.33;;
74170;SDS011;62526;50.948;6.590;2024-01-06T07:16:51;14.57;;;7.73;;
74170;SDS011;62526;50.948;6.590;2024-01-06T07:19:17;17.57;;;9.77;;
74170;SDS011;62526;50.948;6.590;2024-01-06T07:21:44;14.40;;;5.77;;
74170;SDS011;62526;50.948;6.590;2024-01-06T07:24:10;18.43;;;7.97;;
74170;SDS011;62526;50.948;6.590;2024-01-06T07:26:37;14.37;;;7.13;;
74170;SDS011;62526;50.948;6.590;2024-01-06T07:29:04;16.43;;;8.70;;
74170;SDS011;62526;50.948;6.590;2024-01-06T07:31:30;16.20;;;9.27;;
74170;SDS011;62526;50.948;6.590;2024-01-06T07:33:57;17.00;;;8.87;;
74170;SDS011;62526;50.948;6.590;2024-01-06T07:36:29;17.80;;;9.27;;
74170;SDS011;62526;50.948;6.590;2024-01-06T07:38:57;15.67;;;8.17;;
74170;SDS011;62526;50.948;6.590;2024-01-06T07:41:24;18.03;;;9.63;;
74170;SDS011;62526;50.948;6.590;2024-01-06T07:43:51;19.23;;;9.93;;
74170;SDS011;62526;50.948;6.590;2024-01-06T07:46:17;18.13;;;9.83;;
74170;SDS011;62526;50.948;6.590;2024-01-06T07:48:44;21.27;;;9.77;;
74170;SDS011;62526;50.948;6.590;2024-01-06T07:51:10;17.77;;;7.53;;
74170;SDS011;62526;50.948;6.590;2024-01-06T07:53:37;14.30;;;8.30;;
74170;SDS011;62526;50.948;6.590;2024-01-06T07:56:04;25.10;;;14.00;;
74170;SDS011;62526;50.948;6.590;2024-01-06T07:58:31;11.03;;;5.80;;
74170;SDS011;62526;50.948;6.590;2024-01-06T08:00:57;15.47;;;6.83;;
74170;SDS011;62526;50.948;6.590;2024-01-06T08:03:24;25.40;;;13.40;;
74170;SDS011;62526;50.948;6.590;2024-01-06T08:05:50;70.07;;;44.23;;
74170;SDS011;62526;50.948;6.590;2024-01-06T08:08:17;18.40;;;10.00;;
74170;SDS011;62526;50.948;6.590;2024-01-06T08:10:44;10.43;;;6.37;;
74170;SDS011;62526;50.948;6.590;2024-01-06T08:13:11;15.43;;;7.60;;
74170;SDS011;62526;50.948;6.590;2024-01-06T08:15:37;17.73;;;8.80;;
74170;SDS011;62526;50.948;6.590;2024-01-06T08:18:04;15.53;;;9.07;;
74170;SDS011;62526;50.948;6.590;2024-01-06T08:20:31;14.90;;;8.43;;
74170;SDS011;62526;50.948;6.590;2024-01-06T08:22:57;15.07;;;7.07;;
74170;SDS011;62526;50.948;6.590;2024-01-06T08:25:24;36.87;;;21.77;;
74170;SDS011;62526;50.948;6.590;2024-01-06T08:27:51;21.07;;;11.53;;
74170;SDS011;62526;50.948;6.590;2024-01-06T08:30:17;25.83;;;13.47;;
74170;SDS011;62526;50.948;6.590;2024-01-06T08:32:44;18.73;;;9.60;;
74170;SDS011;62526;50.948;6.590;2024-01-06T08:35:11;17.07;;;8.07;;
74170;SDS011;62526;50.948;6.590;2024-01-06T08:37:37;13.30;;;7.47;;
74170;SDS011;62526;50.948;6.590;2024-01-06T08:40:04;10.67;;;5.60;;
74170;SDS011;62526;50.948;6.590;2024-01-06T08:42:31;12.30;;;6.30;;
74170;SDS011;62526;50.948;6.590;2024-01-06T08:44:58;15.80;;;9.10;;
74170;SDS011;62526;50.948;6.590;2024-01-06T08:47:25;18.67;;;10.03;;
74170;SDS011;62526;50.948;6.590;2024-01-06T08:49:51;24.97;;;12.00;;
74170;SDS011;62526;50.948;6.590;2024-01-06T08:52:18;14.53;;;8.37;;
74170;SDS011;62526;50.948;6.590;2024-01-06T08:54:45;15.23;;;6.77;;
74170;SDS011;62526;50.948;6.590;2024-01-06T08:57:11;16.90;;;7.47;;
74170;SDS011;62526;50.948;6.590;2024-01-06T08:59:38;13.47;;;6.40;;
74170;SDS011;62526;50.948;6.590;2024-01-06T09:02:05;12.40;;;6.87;;
74170;SDS011;62526;50.948;6.590;2024-01-06T09:04:31;16.03;;;6.80;;
74170;SDS011;62526;50.948;6.590;2024-01-06T09:06:58;13.40;;;6.77;;
74170;SDS011;62526;50.948;6.590;2024-01-06T09:09:25;15.80;;;7.70;;
74170;SDS011;62526;50.948;6.590;2024-01-06T09:11:51;10.37;;;6.30;;
74170;SDS011;62526;50.948;6.590;2024-01-06T09:14:18;15.77;;;7.87;;
74170;SDS011;62526;50.948;6.590;2024-01-06T09:16:45;14.13;;;7.30;;
74170;SDS011;62526;50.948;6.590;2024-01-06T09:19:11;13.07;;;7.20;;
74170;SDS011;62526;50.948;6.590;2024-01-06T09:21:38;13.83;;;7.90;;
74170;SDS011;62526;50.948;6.590;2024-01-06T09:24:05;13.03;;;8.23;;
74170;SDS011;62526;50.948;6.590;2024-01-06T09:26:32;11.23;;;6.83;;
74170;SDS011;62526;50.948;6.590;2024-01-06T09:28:58;6.93;;;4.70;;
74170;SDS011;62526;50.948;6.590;2024-01-06T09:31:25;12.33;;;7.23;;
74170;SDS011;62526;50.948;6.590;2024-01-06T09:33:52;13.27;;;7.90;;
74170;SDS011;62526;50.948;6.590;2024-01-06T09:36:18;13.77;;;8.23;;
74170;SDS011;62526;50.948;6.590;2024-01-06T09:38:46;12.37;;;6.20;;
74170;SDS011;62526;50.948;6.590;2024-01-06T09:41:12;12.93;;;7.93;;
74170;SDS011;62526;50.948;6.590;2024-01-06T09:43:39;15.73;;;7.87;;
74170;SDS011;62526;50.948;6.590;2024-01-06T09:46:06;16.00;;;8.80;;
74170;SDS011;62526;50.948;6.590;2024-01-06T09:48:32;13.97;;;7.87;;
74170;SDS011;62526;50.948;6.590;2024-01-06T09:51:00;13.90;;;7.37;;
74170;SDS011;62526;50.948;6.590;2024-01-06T09:53:26;14.63;;;8.40;;
74170;SDS011;62526;50.948;6.590;2024-01-06T09:55:52;15.10;;;8.37;;
74170;SDS011;62526;50.948;6.590;2024-01-06T09:58:19;15.07;;;9.60;;
74170;SDS011;62526;50.948;6.590;2024-01-06T10:00:48;14.17;;;7.47;;
74170;SDS011;62526;50.948;6.590;2024-01-06T10:03:12;14.17;;;7.60;;
74170;SDS011;62526;50.948;6.590;2024-01-06T10:05:39;16.43;;;8.07;;
74170;SDS011;62526;50.948;6.590;2024-01-06T10:08:06;15.57;;;8.67;;
74170;SDS011;62526;50.948;6.590;2024-01-06T10:10:33;11.57;;;6.83;;
74170;SDS011;62526;50.948;6.590;2024-01-06T10:13:00;8.80;;;5.83;;
74170;SDS011;62526;50.948;6.590;2024-01-06T10:15:26;6.50;;;3.80;;
74170;SDS011;62526;50.948;6.590;2024-01-06T10:17:53;12.23;;;7.00;;
74170;SDS011;62526;50.948;6.590;2024-01-06T10:20:20;11.73;;;7.00;;
74170;SDS011;62526;50.948;6.590;2024-01-06T10:22:46;10.60;;;6.23;;
74170;SDS011;62526;50.948;6.590;2024-01-06T10:25:13;11.63;;;5.63;;
74170;SDS011;62526;50.948;6.590;2024-01-06T10:27:40;11.17;;;4.77;;
74170;SDS011;62526;50.948;6.590;2024-01-06T10:30:07;15.43;;;6.03;;
74170;SDS011;62526;50.948;6.590;2024-01-06T10:32:34;14.70;;;7.47;;
74170;SDS011;62526;50.948;6.590;2024-01-06T10:35:00;12.67;;;6.53;;
74170;SDS011;62526;50.948;6.590;2024-01-06T10:37:28;9.87;;;5.27;;
74170;SDS011;62526;50.948;6.590;2024-01-06T10:42:42;16.20;;;7.27;;
74170;SDS011;62526;50.948;6.590;2024-01-06T10:45:09;16.47;;;8.43;;
74170;SDS011;62526;50.948;6.590;2024-01-06T10:47:36;12.07;;;6.57;;
74170;SDS011;62526;50.948;6.590;2024-01-06T10:50:03;12.53;;;6.47;;
74170;SDS011;62526;50.948;6.590;2024-01-06T10:52:30;10.87;;;6.00;;
74170;SDS011;62526;50.948;6.590;2024-01-06T10:54:57;17.03;;;7.40;;
74170;SDS011;62526;50.948;6.590;2024-01-06T10:57:23;7.70;;;3.97;;
74170;SDS011;62526;50.948;6.590;2024-01-06T10:59:50;9.97;;;6.27;;
74170;SDS011;62526;50.948;6.590;2024-01-06T11:02:16;15.30;;;8.07;;
74170;SDS011;62526;50.948;6.590;2024-01-06T11:04:47;12.53;;;6.50;;
74170;SDS011;62526;50.948;6.590;2024-01-06T11:07:15;13.73;;;7.73;;
74170;SDS011;62526;50.948;6.590;2024-01-06T11:09:46;10.33;;;6.47;;
74170;SDS011;62526;50.948;6.590;2024-01-06T11:12:13;12.13;;;7.50;;
74170;SDS011;62526;50.948;6.590;2024-01-06T11:14:40;9.90;;;6.43;;
74170;SDS011;62526;50.948;6.590;2024-01-06T11:17:07;8.03;;;5.47;;
74170;SDS011;62526;50.948;6.590;2024-01-06T11:22:23;11.47;;;6.17;;
74170;SDS011;62526;50.948;6.590;2024-01-06T11:24:48;11.17;;;5.80;;
74170;SDS011;62526;50.948;6.590;2024-01-06T11:27:17;8.73;;;5.43;;
74170;SDS011;62526;50.948;6.590;2024-01-06T11:29:44;16.27;;;8.43;;
74170;SDS011;62526;50.948;6.590;2024-01-06T11:32:19;13.37;;;6.87;;
74170;SDS011;62526;50.948;6.590;2024-01-06T11:34:48;16.17;;;8.43;;
74170;SDS011;62526;50.948;6.590;2024-01-06T11:37:14;13.03;;;7.43;;
74170;SDS011;62526;50.948;6.590;2024-01-06T11:39:41;16.03;;;8.70;;
74170;SDS011;62526;50.948;6.590;2024-01-06T11:42:09;15.37;;;8.57;;
74170;SDS011;62526;50.948;6.590;2024-01-06T11:44:37;13.73;;;8.90;;
74170;SDS011;62526;50.948;6.590;2024-01-06T11:47:03;15.17;;;8.47;;
74170;SDS011;62526;50.948;6.590;2024-01-06T11:49:30;13.20;;;7.87;;
74170;SDS011;62526;50.948;6.590;2024-01-06T11:51:57;11.70;;;6.53;;
74170;SDS011;62526;50.948;6.590;2024-01-06T11:54:23;17.27;;;8.13;;
74170;SDS011;62526;50.948;6.590;2024-01-06T11:56:50;15.70;;;8.97;;
74170;SDS011;62526;50.948;6.590;2024-01-06T11:59:19;17.03;;;9.40;;
74170;SDS011;62526;50.948;6.590;2024-01-06T12:01:46;21.07;;;11.40;;
74170;SDS011;62526;50.948;6.590;2024-01-06T12:04:13;31.33;;;15.57;;
74170;SDS011;62526;50.948;6.590;2024-01-06T12:06:40;23.50;;;14.27;;
74170;SDS011;62526;50.948;6.590;2024-01-06T12:09:08;21.13;;;10.20;;
74170;SDS011;62526;50.948;6.590;2024-01-06T12:11:34;19.70;;;9.80;;
74170;SDS011;62526;50.948;6.590;2024-01-06T12:14:00;26.47;;;11.60;;
74170;SDS011;62526;50.948;6.590;2024-01-06T12:16:27;14.73;;;8.03;;
74170;SDS011;62526;50.948;6.590;2024-01-06T12:18:54;18.60;;;9.63;;
74170;SDS011;62526;50.948;6.590;2024-01-06T12:21:22;27.53;;;13.70;;
74170;SDS011;62526;50.948;6.590;2024-01-06T12:23:47;21.50;;;11.30;;
74170;SDS011;62526;50.948;6.590;2024-01-06T12:26:14;19.13;;;9.47;;
74170;SDS011;62526;50.948;6.590;2024-01-06T12:28:40;16.17;;;7.87;;
74170;SDS011;62526;50.948;6.590;2024-01-06T12:31:10;19.23;;;9.03;;
74170;SDS011;62526;50.948;6.590;2024-01-06T12:33:38;12.73;;;6.87;;
74170;SDS011;62526;50.948;6.590;2024-01-06T12:36:04;16.90;;;7.80;;
74170;SDS011;62526;50.948;6.590;2024-01-06T12:38:31;13.60;;;7.33;;
74170;SDS011;62526;50.948;6.590;2024-01-06T12:40:58;15.63;;;7.27;;
74170;SDS011;62526;50.948;6.590;2024-01-06T12:43:25;15.87;;;5.23;;
74170;SDS011;62526;50.948;6.590;2024-01-06T12:45:51;14.93;;;8.20;;
74170;SDS011;62526;50.948;6.590;2024-01-06T12:48:18;20.03;;;9.03;;
74170;SDS011;62526;50.948;6.590;2024-01-06T12:50:44;17.53;;;8.97;;
74170;SDS011;62526;50.948;6.590;2024-01-06T12:53:11;18.13;;;8.20;;
74170;SDS011;62526;50.948;6.590;2024-01-06T12:55:38;18.60;;;8.87;;
74170;SDS011;62526;50.948;6.590;2024-01-06T12:58:04;17.17;;;9.57;;
74170;SDS011;62526;50.948;6.590;2024-01-06T13:00:31;18.27;;;9.20;;
74170;SDS011;62526;50.948;6.590;2024-01-06T13:02:58;23.17;;;12.20;;
74170;SDS011;62526;50.948;6.590;2024-01-06T13:05:24;8.77;;;4.97;;
74170;SDS011;62526;50.948;6.590;2024-01-06T13:07:51;17.30;;;8.57;;
74170;SDS011;62526;50.948;6.590;2024-01-06T13:10:17;21.10;;;10.00;;
74170;SDS011;62526;50.948;6.590;2024-01-06T13:12:44;13.97;;;7.63;;
74170;SDS011;62526;50.948;6.590;2024-01-06T13:15:11;25.07;;;10.37;;
74170;SDS011;62526;50.948;6.590;2024-01-06T13:17:37;8.83;;;3.80;;
74170;SDS011;62526;50.948;6.590;2024-01-06T13:20:04;16.07;;;8.50;;
74170;SDS011;62526;50.948;6.590;2024-01-06T13:22:31;19.47;;;10.67;;
74170;SDS011;62526;50.948;6.590;2024-01-06T13:24:58;20.13;;;9.70;;
74170;SDS011;62526;50.948;6.590;2024-01-06T13:27:25;18.93;;;9.60;;
74170;SDS011;62526;50.948;6.590;2024-01-06T13:29:54;17.53;;;9.37;;
74170;SDS011;62526;50.948;6.590;2024-01-06T13:32:20;19.53;;;9.17;;
74170;SDS011;62526;50.948;6.590;2024-01-06T13:34:47;17.80;;;9.37;;
74170;SDS011;62526;50.948;6.590;2024-01-06T13:37:14;17.80;;;8.80;;
74170;SDS011;62526;50.948;6.590;2024-01-06T13:39:40;15.67;;;7.93;;
74170;SDS011;62526;50.948;6.590;2024-01-06T13:42:07;20.53;;;8.97;;
74170;SDS011;62526;50.948;6.590;2024-01-06T13:44:34;17.53;;;8.57;;
74170;SDS011;62526;50.948;6.590;2024-01-06T13:47:00;15.13;;;8.57;;
74170;SDS011;62526;50.948;6.590;2024-01-06T13:49:27;13.97;;;6.87;;
74170;SDS011;62526;50.948;6.590;2024-01-06T13:51:54;13.27;;;6.47;;
74170;SDS011;62526;50.948;6.590;2024-01-06T13:54:21;12.87;;;7.00;;
74170;SDS011;62526;50.948;6.590;2024-01-06T13:56:48;7.00;;;4.70;;
74170;SDS011;62526;50.948;6.590;2024-01-06T13:59:15;17.80;;;9.03;;
74170;SDS011;62526;50.948;6.590;2024-01-06T14:01:41;12.87;;;6.53;;
74170;SDS011;62526;50.948;6.590;2024-01-06T14:04:08;18.83;;;10.70;;
74170;SDS011;62526;50.948;6.590;2024-01-06T14:06:35;20.50;;;10.87;;
74170;SDS011;62526;50.948;6.590;2024-01-06T14:09:01;22.23;;;10.93;;
74170;SDS011;62526;50.948;6.590;2024-01-06T14:11:28;20.53;;;10.73;;
74170;SDS011;62526;50.948;6.590;2024-01-06T14:13:56;24.63;;;11.30;;
74170;SDS011;62526;50.948;6.590;2024-01-06T14:16:21;22.30;;;11.37;;
74170;SDS011;62526;50.948;6.590;2024-01-06T14:18:48;21.97;;;10.30;;
74170;SDS011;62526;50.948;6.590;2024-01-06T14:21:14;22.90;;;11.63;;
74170;SDS011;62526;50.948;6.590;2024-01-06T14:23:41;20.90;;;10.90;;
74170;SDS011;62526;50.948;6.590;2024-01-06T14:26:08;25.10;;;11.70;;
74170;SDS011;62526;50.948;6.590;2024-01-06T14:28:34;25.37;;;12.83;;
74170;SDS011;62526;50.948;6.590;2024-01-06T14:31:01;30.20;;;14.07;;